• Join FlightAware (Why Join?)
  • Login
  • US Flag 
11:56AM EDT


 

Airport Tracker/Info


-or-


 

Live Flight TrackerFlight Track Log ✈ UPS1075 ✈ 09-Dec-2013 ✈ KEWR - KRFD

Flight Track Log - Related Links

Times and Time Zones

All times are in EST time to prevent confusion due to time zone crossing. See the UPS1075 flight status page for this flight to view local times or setup timezone preferences in your user account.

Time Position Orientation Groundspeed Altitude Reporting Facility
EST Latitude Longitude Course Direction KTS MPH feet Rate Location/Type
10:45PM 40.6812 -74.1758 201° Southwest 160 184 500  Level FlightAware ADS-B
10:46PM 40.6750 -74.1781 196° South 155 178 1,000 3,180 Climbing FlightAware ADS-B
10:46PM 40.6704 -74.1781 180° South 163 188 1,300 2,520 Climbing FlightAware ADS-B
10:46PM 40.6647 -74.1772 173° South 174 200 1,600 1,680 Climbing FlightAware ADS-B
10:46PM 40.6535 -74.1748 171° South 197 227 1,900 1,380 Climbing FlightAware ADS-B
10:46PM 40.6491 -74.1748 180° South 200 230 2,000 1,260 Climbing FlightAware ADS-B
10:46PM 40.6359 -74.1793 195° South 213 245 2,300 1,260 Climbing FlightAware ADS-B
10:46PM 40.6321 -74.1814 203° Southwest 213 245 2,400 480 Climbing FlightAware ADS-B
10:46PM 40.6256 -74.1883 219° Southwest 215 247 2,400  Level FlightAware ADS-B
10:47PM 40.6226 -74.1923 225° Southwest 216 249 2,400  Level FlightAware ADS-B
10:47PM 40.6196 -74.1990 239° Southwest 218 251 2,400  Level FlightAware ADS-B
10:47PM 40.6169 -74.2077 248° West 221 254 2,400 960 Level FlightAware ADS-B
10:47PM 40.6136 -74.2218 253° West 219 252 2,700 2,100 Climbing FlightAware ADS-B
10:47PM 40.6118 -74.2294 253° West 220 253 3,000 2,280 Climbing FlightAware ADS-B
10:47PM 40.6065 -74.2493 251° West 237 273 3,500 2,880 Climbing FlightAware ADS-B
10:48PM 40.6039 -74.2691 260° West 235 270 4,400 4,380 Climbing FlightAware ADS-B
10:48PM 40.6169 -74.2999 299° West 244 281 6,300 4,140 Climbing FlightAware ADS-B
10:48PM 40.6418 -74.3328 315° West 246 283 8,300 3,720 Climbing FlightAware ADS-B
10:49PM 40.6574 -74.3728 297° West 241 277 10,200 2,280 Climbing FlightAware ADS-B
10:50PM 40.6980 -74.4938 294° West 250 288 12,300 2,340 Climbing FlightAware ADS-B
10:51PM 40.7327 -74.5967 294° West 340 391 15,300 1,980 Climbing FlightAware ADS-B
10:55PM 40.8467 -75.0065 290° West 343 395 21,100 1,740 Climbing FlightAware ADS-B (KWWD)
10:55PM 40.8572 -75.0886 280° West 351 404 22,700 2,340 Climbing FlightAware ADS-B (KWWD)
10:56PM 40.8630 -75.1567 277° West 351 404 23,900 2,160 Climbing FlightAware ADS-B (KWWD)
10:56PM 40.8659 -75.2212 273° West 353 406 25,000 2,100 Climbing FlightAware ADS-B (KWWD)
10:58PM 40.8491 -75.4789 265° West 343 395 29,200 2,040 Climbing FlightAware ADS-B (KWWD)
10:59PM 40.8322 -75.5521 253° West 336 387 30,500 480 Climbing FlightAware ADS-B (KWWD)
11:04PM 40.7007 -76.0949 252° West 331 381 32,000 240 Climbing FlightAware ADS-B (KWWD)
11:04PM 40.6833 -76.1719 253° West 331 381 32,000  Level FlightAware ADS-B (KWWD)
11:05PM 40.6751 -76.2524 262° West 337 388 32,000  Level FlightAware ADS-B (KWWD)
11:06PM 40.6794 -76.3396 274° West 346 398 32,000  Level FlightAware ADS-B (KWWD)
11:07PM 40.6970 -76.4555 281° West 347 399 32,000  Level FlightAware ADS-B (KWWD)
11:11PM 40.7710 -76.9590 281° West 352 405 32,000  Level FlightAware ADS-B (KWWD)
11:12PM 40.7858 -77.0614 281° West 352 405 32,000  Level New York Center
11:13PM 40.8022 -77.1861 280° West 352 405 32,000  Level New York Center
11:14PM 40.8181 -77.3111 280° West 352 405 32,000  Level New York Center
11:15PM 40.8383 -77.4367 282° West 352 405 32,000  Level New York Center
11:17PM 40.8808 -77.7367 281° West 348 400 32,000  Level Cleveland Center
11:18PM 40.8986 -77.8628 281° West 350 403 32,000  Level Cleveland Center
11:19PM 40.9139 -77.9872 279° West 346 398 32,000  Level Cleveland Center
11:20PM 40.9289 -78.1117 279° West 344 396 32,000  Level Cleveland Center
11:21PM 40.9461 -78.2525 279° West 350 403 32,000  Level Cleveland Center
11:22PM 40.9653 -78.3836 281° West 364 419 32,000  Level Cleveland Center
11:23PM 40.9806 -78.5081 279° West 351 404 32,000  Level Cleveland Center
11:24PM 40.9894 -78.6272 276° West 350 403 32,000  Level Cleveland Center
11:25PM 41.0042 -78.7500 279° West 350 403 32,000  Level Cleveland Center
11:26PM 41.0208 -78.8744 280° West 347 399 32,000  Level Cleveland Center
11:27PM 41.0344 -78.9997 278° West 350 403 32,000  Level Cleveland Center
11:28PM 41.0483 -79.1239 278° West 344 396 32,000  Level Cleveland Center
11:29PM 41.0656 -79.2731 279° West 344 396 32,000  Level Cleveland Center
11:30PM 41.0789 -79.3958 278° West 341 392 32,000  Level Cleveland Center
11:31PM 41.0925 -79.5181 278° West 339 390 32,000  Level Cleveland Center
11:32PM 41.1067 -79.6406 279° West 337 388 32,000  Level Cleveland Center
11:33PM 41.1192 -79.7592 278° West 327 376 32,000  Level Cleveland Center
11:34PM 41.1342 -79.8806 279° West 340 391 32,000  Level Cleveland Center
11:35PM 41.1472 -80.0058 278° West 333 383 32,000  Level Cleveland Center
11:36PM 41.1589 -80.1267 277° West 332 382 32,000  Level Cleveland Center
11:37PM 41.1728 -80.2450 279° West 328 377 32,000  Level Cleveland Center
11:38PM 41.1856 -80.3711 278° West 330 380 32,000  Level Cleveland Center
11:39PM 41.1978 -80.4939 278° West 330 380 32,000  Level Cleveland Center
11:40PM 41.2125 -80.6342 278° West 327 376 32,000  Level Cleveland Center
11:41PM 41.2258 -80.7550 278° West 327 376 32,000  Level Cleveland Center
11:42PM 41.2369 -80.8739 277° West 324 373 32,000  Level Cleveland Center
11:43PM 41.2492 -80.9931 278° West 323 372 32,000  Level Cleveland Center
11:44PM 41.2614 -81.1122 278° West 323 372 32,000  Level Cleveland Center
11:45PM 41.2736 -81.2328 278° West 326 375 32,000  Level Cleveland Center
11:46PM 41.2853 -81.3525 277° West 324 373 32,000  Level Cleveland Center
11:47PM 41.2936 -81.4575 276° West 329 379 32,000  Level Cleveland Center
11:48PM 41.3053 -81.5731 278° West 322 371 32,000  Level Cleveland Center
11:49PM 41.3147 -81.6894 276° West 318 366 32,000  Level Cleveland Center
11:51PM 41.3289 -81.8297 278° West 319 367 32,000  Level Cleveland Center
11:52PM 41.3394 -81.9467 277° West 320 368 32,000  Level Cleveland Center
11:53PM 41.3500 -82.0628 277° West 317 365 32,000  Level Cleveland Center
11:54PM 41.3597 -82.1692 277° West 318 366 32,000  Level Cleveland Center
11:55PM 41.3731 -82.2858 279° West 318 366 32,000  Level Cleveland Center
11:56PM 41.3875 -82.4017 279° West 315 362 32,000  Level Cleveland Center
11:57PM 41.4031 -82.5372 279° West 315 362 32,000  Level Cleveland Center
11:58PM 41.4222 -82.6517 283° West 314 361 32,000  Level Cleveland Center
11:59PM 41.4397 -82.7667 282° West 314 361 32,000  Level Cleveland Center
12:00AM 41.4569 -82.8811 281° West 313 360 32,000  Level Cleveland Center
12:01AM 41.4733 -82.9981 281° West 317 365 32,000  Level Cleveland Center
12:02AM 41.4908 -83.1128 282° West 315 362 32,000  Level Cleveland Center
12:03AM 41.5056 -83.2108 281° West 313 360 32,000  Level Cleveland Center
12:04AM 41.5219 -83.3244 281° West 312 359 32,000  Level Cleveland Center
12:05AM 41.5386 -83.4381 281° West 312 359 32,000  Level Cleveland Center
12:06AM 41.5531 -83.5525 280° West 312 359 32,000  Level Cleveland Center
12:07AM 41.5728 -83.6892 281° West 312 359 32,000  Level Cleveland Center
12:08AM 41.5886 -83.8025 281° West 311 358 32,000  Level Cleveland Center
12:09AM 41.6033 -83.9139 280° West 306 352 32,000  Level Cleveland Center
12:10AM 41.6197 -84.0278 281° West 310 357 32,000  Level Cleveland Center
12:11AM 41.6358 -84.1417 281° West 312 359 32,000  Level Cleveland Center
12:12AM 41.6508 -84.2594 280° West 313 360 32,000  Level Cleveland Center
12:13AM 41.6667 -84.3728 281° West 312 359 32,000  Level Cleveland Center
12:14AM 41.6811 -84.4853 280° West 308 354 32,000  Level Cleveland Center
12:15AM 41.6964 -84.5989 280° West 309 356 32,000  Level Cleveland Center
12:16AM 41.7081 -84.6911 280° West 312 359 32,000  Level Chicago Center
12:17AM 41.7231 -84.8061 280° West 314 361 32,000  Level Chicago Center
12:18AM 41.7383 -84.9217 280° West 316 364 32,000  Level Chicago Center
12:19AM 41.7531 -85.0350 280° West 313 360 32,000  Level Chicago Center
12:20AM 41.7667 -85.1500 279° West 315 362 32,000  Level Chicago Center
12:21AM 41.7808 -85.2633 280° West 314 361 32,000  Level Chicago Center
12:22AM 41.7944 -85.3767 279° West 314 361 32,000  Level Chicago Center
12:23AM 41.8114 -85.5139 279° West 316 364 32,000  Level Chicago Center
12:24AM 41.8258 -85.6292 280° West 318 366 32,000  Level Chicago Center
12:25AM 41.8394 -85.7436 279° West 314 361 32,000  Level Chicago Center
12:26AM 41.8536 -85.8600 279° West 317 365 32,000 -180 Level Chicago Center
12:31AM 41.8977 -86.2291 279° West 322 371 31,200 -480 Descending FlightAware ADS-B (KPWK)
12:34AM 41.9648 -86.8181 279° West 332 382 28,600 -1,020 Descending FlightAware ADS-B (KPWK)
12:35AM 41.9831 -86.9876 278° West 347 399 27,200 -1,020 Descending FlightAware ADS-B (KPWK)
12:36AM 41.9944 -87.0911 278° West 355 409 26,200 -960 Descending FlightAware ADS-B (KPWK)
12:37AM 42.0069 -87.2042 279° West 351 404 25,600 -1,020 Descending FlightAware ADS-B (KPWK)
12:37AM 42.0161 -87.2893 278° West 344 396 24,900 -1,080 Descending FlightAware ADS-B (KPWK)
12:38AM 42.0240 -87.3629 278° West 339 390 24,200 -1,080 Descending FlightAware ADS-B (KPWK)
12:39AM 42.0306 -87.4254 278° West 336 387 23,500 -1,020 Descending FlightAware ADS-B (KPWK)
12:40AM 42.0408 -87.5226 278° West 336 387 22,800 -1,080 Descending FlightAware ADS-B
12:40AM 42.0506 -87.6185 278° West 342 394 22,100 -660 Descending FlightAware ADS-B
12:41AM 42.0597 -87.7089 278° West 340 391 22,000 -840 Descending FlightAware ADS-B
12:41AM 42.0682 -87.7926 278° West 339 390 21,000 -1,740 Descending FlightAware ADS-B
12:42AM 42.0764 -87.8710 278° West 330 380 19,700 -1,740 Descending FlightAware ADS-B
12:43AM 42.0852 -87.9559 278° West 326 375 18,700 -1,500 Descending FlightAware ADS-B
12:43AM 42.0932 -88.0366 278° West 330 380 17,700 -1,500 Descending FlightAware ADS-B
12:44AM 42.1008 -88.1137 278° West 345 397 16,700 -1,440 Descending FlightAware ADS-B
12:45AM 42.1098 -88.2037 278° West 347 399 15,800 -1,080 Descending FlightAware ADS-B
12:45AM 42.1173 -88.2766 278° West 348 400 15,300 -1,620 Descending FlightAware ADS-B
12:46AM 42.1259 -88.3625 278° West 344 396 13,700 -2,220 Descending FlightAware ADS-B
12:47AM 42.1308 -88.4135 277° West 339 390 12,400 -1,380 Descending FlightAware ADS-B
12:47AM 42.1374 -88.4825 277° West 336 387 12,100 -1,440 Descending FlightAware ADS-B
12:48AM 42.1477 -88.6181 276° West 284 327 10,600 -1,680 Descending FlightAware ADS-B (KPWK)
12:48AM 42.1415 -88.6410 250° West 270 311 10,300 -960 Descending FlightAware ADS-B (KPWK)
12:49AM 42.1192 -88.7069 245° Southwest 244 281 9,700 -1,140 Descending FlightAware ADS-B (KPWK)
12:49AM 42.1087 -88.7369 245° Southwest 239 275 9,200 -1,500 Descending FlightAware ADS-B (KPWK)
12:50AM 42.1000 -88.7610 244° Southwest 236 272 8,700 -1,740 Descending FlightAware ADS-B (KPWK)
12:50AM 42.0900 -88.7900 245° Southwest 235 270 8,100 -1,740 Descending FlightAware ADS-B (KPWK)
12:50AM 42.0842 -88.8059 244° Southwest 232 267 7,600 -2,280 Descending FlightAware ADS-B (KPWK)
12:51AM 42.0737 -88.8345 244° Southwest 233 268 6,800 -2,400 Descending FlightAware ADS-B (KPWK)
12:51AM 42.0616 -88.8684 244° Southwest 235 270 5,900 -1,680 Descending FlightAware ADS-B (KPWK)
12:52AM 42.0375 -88.9328 244° Southwest 237 273 4,600 -1,560 Descending Chicago Center
12:53AM 42.0131 -89.0106 247° West 231 266 2,900 -1,020 Descending Chicago Center
12:54AM 42.0125 -89.0894 269° West 220 253 2,600 -240 Descending Chicago Center
12:55AM 42.0544 -89.1083 342° North 211 243 2,500 -120 Descending Chicago Center
12:56AM 42.1022 -89.1022 North 188 216 2,400 -180 Descending Chicago Center
12:57AM 42.1478 -89.0958 North 185 213 2,200 -240 Descending Chicago Center